createdAt,value
2019-04-10T04:01:18.833Z,95.33
2019-04-10T04:03:44.791Z,95.34
2019-04-10T04:06:11.158Z,95.26
2019-04-10T04:08:37.441Z,95.48
2019-04-10T04:11:03.589Z,95.34
2019-04-10T04:13:29.365Z,95.38
2019-04-10T04:15:55.326Z,95.46
2019-04-10T04:18:21.404Z,95.15
2019-04-10T04:20:47.560Z,95.01
2019-04-10T04:23:13.819Z,94.92
2019-04-10T04:25:40.565Z,95.00
2019-04-10T04:28:07.096Z,94.97
2019-04-10T04:30:34.054Z,95.17
2019-04-10T04:33:00.395Z,95.41
2019-04-10T04:35:26.059Z,95.59
2019-04-10T04:37:52.641Z,95.85
2019-04-10T04:40:19.674Z,95.85
2019-04-10T04:42:45.896Z,95.85
2019-04-10T04:45:12.770Z,95.76
2019-04-10T04:47:39.152Z,95.80
2019-04-10T04:50:05.605Z,95.94
2019-04-10T04:52:31.426Z,95.92
2019-04-10T04:54:57.566Z,95.82
2019-04-10T04:57:23.290Z,95.79
2019-04-10T04:59:49.018Z,95.86
2019-04-10T05:02:14.811Z,95.76
2019-04-10T05:04:41.630Z,95.77
2019-04-10T05:07:08.342Z,95.68
2019-04-10T05:09:38.409Z,95.01
2019-04-10T05:12:02.861Z,94.84
2019-04-10T05:14:29.479Z,94.75
2019-04-10T05:16:55.506Z,94.93
2019-04-10T05:19:21.401Z,95.20
2019-04-10T05:21:47.696Z,95.24
2019-04-10T05:24:13.834Z,94.86
2019-04-10T05:26:40.557Z,95.12
2019-04-10T05:29:06.382Z,95.24
2019-04-10T05:31:53.099Z,95.46
2019-04-10T05:34:19.893Z,95.44
2019-04-10T05:36:46.973Z,95.38
2019-04-10T05:39:12.860Z,95.30
2019-04-10T05:41:38.622Z,95.27
2019-04-10T05:44:04.684Z,95.47
2019-04-10T05:46:30.447Z,95.34
2019-04-10T05:48:56.288Z,95.08
2019-04-10T05:51:23.358Z,94.61
2019-04-10T05:53:52.296Z,94.97
2019-04-10T05:56:16.899Z,95.08
2019-04-10T05:58:42.898Z,94.74
2019-04-10T06:01:09.512Z,94.64
2019-04-10T06:03:36.573Z,94.42
2019-04-10T06:06:02.493Z,93.91
2019-04-10T06:08:28.243Z,93.58
2019-04-10T06:10:54.016Z,94.28
2019-04-10T06:13:19.796Z,94.24
2019-04-10T06:15:45.559Z,93.94
2019-04-10T06:18:12.770Z,93.56
2019-04-10T06:20:39.685Z,93.64
2019-04-10T06:23:05.567Z,93.74
2019-04-10T06:25:33.398Z,93.73
2019-04-10T06:27:59.358Z,93.28
2019-04-10T06:30:25.936Z,93.18
2019-04-10T06:32:51.845Z,92.96
2019-04-10T06:35:17.661Z,92.92
2019-04-10T06:37:43.372Z,92.46
2019-04-10T06:40:17.041Z,91.86
2019-04-10T06:42:45.803Z,92.21
2019-04-10T06:45:05.749Z,92.09
2019-04-10T06:47:31.674Z,91.31
2019-04-10T06:49:57.448Z,91.86
2019-04-10T06:52:23.700Z,91.64
2019-04-10T06:54:51.047Z,91.36
2019-04-10T06:57:17.273Z,91.87
2019-04-10T06:59:43.014Z,92.17
2019-04-10T07:02:20.275Z,91.18
2019-04-10T07:04:46.155Z,91.38
2019-04-10T07:07:09.349Z,90.25
2019-04-10T07:09:32.457Z,91.12
2019-04-10T07:12:01.072Z,91.22
2019-04-10T07:14:26.795Z,90.60
2019-04-10T07:16:53.058Z,90.41
2019-04-10T07:19:19.784Z,90.75
2019-04-10T07:21:45.691Z,91.52
2019-04-10T07:24:13.736Z,90.09
2019-04-10T07:26:42.211Z,89.76
2019-04-10T07:29:06.800Z,89.32
2019-04-10T07:31:36.040Z,90.77
2019-04-10T07:34:01.309Z,90.70
2019-04-10T07:36:27.221Z,90.81
2019-04-10T07:38:55.715Z,89.54
2019-04-10T07:41:23.231Z,89.70
2019-04-10T07:43:53.912Z,89.44
2019-04-10T07:46:17.289Z,87.70
2019-04-10T07:48:43.615Z,89.04
2019-04-10T07:51:09.514Z,87.39
2019-04-10T07:53:35.594Z,88.72
2019-04-10T07:56:06.805Z,83.81
2019-04-10T07:58:29.316Z,85.56
2019-04-10T08:00:55.172Z,85.76
2019-04-10T08:03:20.937Z,84.08
2019-04-10T08:05:46.716Z,84.41
2019-04-10T08:08:12.731Z,85.62
2019-04-10T08:10:41.185Z,83.35
2019-04-10T08:13:06.966Z,85.83
2019-04-10T08:15:33.641Z,81.26
2019-04-10T08:18:00.396Z,82.03
2019-04-10T08:20:26.276Z,80.70
2019-04-10T08:22:53.248Z,83.12
2019-04-10T08:25:19.107Z,82.95
2019-04-10T08:27:45.879Z,81.57
2019-04-10T08:30:12.552Z,82.15
2019-04-10T08:32:51.448Z,81.51
2019-04-10T08:35:06.993Z,80.95
2019-04-10T08:37:32.906Z,81.15
2019-04-10T08:39:59.056Z,80.86
2019-04-10T08:42:25.008Z,81.12
2019-04-10T08:44:50.770Z,79.48
2019-04-10T08:47:17.288Z,82.46
2019-04-10T08:49:43.306Z,77.76
2019-04-10T08:52:10.366Z,77.93
2019-04-10T08:54:36.420Z,75.99
2019-04-10T08:57:03.275Z,75.63
2019-04-10T08:59:29.996Z,79.95
2019-04-10T09:01:56.073Z,75.57
2019-04-10T09:04:21.837Z,75.71
2019-04-10T09:06:47.633Z,78.57
2019-04-10T09:09:13.388Z,79.25
2019-04-10T09:11:39.429Z,77.21
2019-04-10T09:14:05.557Z,79.84
2019-04-10T09:16:31.253Z,78.61
2019-04-10T09:18:57.877Z,77.67
2019-04-10T09:21:23.790Z,80.33
2019-04-10T09:23:52.811Z,77.47
2019-04-10T09:26:17.327Z,75.43
2019-04-10T09:28:43.087Z,78.68
2019-04-10T09:31:09.358Z,75.46
2019-04-10T09:33:35.160Z,74.46
2019-04-10T09:36:00.928Z,74.66
2019-04-10T09:38:26.689Z,76.18
2019-04-10T09:40:53.291Z,75.33
2019-04-10T09:43:19.378Z,75.80
2019-04-10T09:45:45.920Z,76.74
2019-04-10T09:48:12.795Z,77.54
2019-04-10T09:50:39.615Z,76.46
2019-04-10T09:53:05.945Z,78.30
2019-04-10T09:55:31.978Z,77.53
2019-04-10T09:57:57.772Z,77.44
2019-04-10T10:00:25.752Z,79.34
2019-04-10T10:02:52.893Z,81.38
2019-04-10T10:05:18.859Z,83.02
2019-04-10T10:07:45.182Z,81.30
2019-04-10T10:10:12.639Z,81.10
2019-04-10T10:12:38.769Z,80.22
2019-04-10T10:15:07.250Z,81.19
2019-04-10T10:17:33.126Z,81.98
2019-04-10T10:19:59.509Z,83.78
2019-04-10T10:22:25.342Z,83.68
2019-04-10T10:24:51.106Z,83.02
2019-04-10T10:27:17.792Z,83.35
2019-04-10T10:29:44.072Z,83.81
2019-04-10T10:32:10.908Z,83.64
2019-04-10T10:34:36.793Z,84.80
2019-04-10T10:37:03.901Z,84.49
2019-04-10T10:39:30.745Z,84.42
2019-04-10T10:41:56.625Z,85.50
2019-04-10T10:44:22.406Z,86.06
2019-04-10T10:46:48.177Z,87.80
2019-04-10T10:49:14.225Z,87.46
2019-04-10T10:51:39.990Z,86.14
2019-04-10T10:54:06.066Z,85.84
2019-04-10T10:56:32.038Z,86.06
2019-04-10T10:58:59.018Z,86.92
2019-04-10T11:01:25.260Z,86.49
2019-04-10T11:03:51.032Z,86.36
2019-04-10T11:06:17.848Z,87.30
2019-04-10T11:08:43.918Z,86.29
2019-04-10T11:11:10.238Z,86.48
2019-04-10T11:13:37.096Z,87.69
2019-04-10T11:16:05.630Z,88.23
2019-04-10T11:18:30.921Z,88.17
2019-04-10T11:21:02.937Z,87.11
2019-04-10T11:23:24.712Z,86.67
2019-04-10T11:25:50.836Z,86.60
2019-04-10T11:28:18.547Z,86.98
2019-04-10T11:30:45.004Z,88.43
2019-04-10T11:33:11.073Z,88.14
2019-04-10T11:35:37.378Z,88.34
2019-04-10T11:38:05.733Z,88.46
2019-04-10T11:40:31.783Z,87.89
2019-04-10T11:42:59.933Z,88.57
2019-04-10T11:45:28.610Z,87.71
2019-04-10T11:47:53.103Z,88.35
2019-04-10T11:50:18.937Z,89.46
2019-04-10T11:52:51.900Z,89.40
2019-04-10T11:55:17.049Z,89.00
2019-04-10T11:57:41.957Z,87.75
2019-04-10T12:00:12.061Z,87.96
2019-04-10T12:02:37.089Z,88.02
2019-04-10T12:05:09.554Z,88.74
2019-04-10T12:12:28.017Z,87.38
2019-04-10T12:14:54.248Z,87.45
2019-04-10T12:17:20.373Z,87.73
2019-04-10T12:19:46.715Z,87.79
2019-04-10T12:22:13.584Z,88.11
2019-04-10T12:24:40.463Z,86.72
2019-04-10T12:27:06.555Z,87.49
2019-04-10T12:29:33.000Z,87.22
2019-04-10T12:31:59.201Z,86.96
2019-04-10T12:34:24.972Z,88.17
2019-04-10T12:36:51.806Z,89.32
2019-04-10T12:39:18.394Z,88.74
2019-04-10T12:41:44.512Z,88.69
2019-04-10T12:44:10.276Z,88.44
2019-04-10T12:46:37.339Z,88.95
2019-04-10T12:49:03.835Z,89.56
2019-04-10T12:51:30.043Z,89.38
2019-04-10T12:53:56.167Z,89.36
2019-04-10T12:56:22.299Z,88.77
2019-04-10T12:58:47.995Z,89.17
2019-04-10T13:01:14.272Z,88.65
2019-04-10T13:03:41.170Z,88.73
2019-04-10T13:06:07.513Z,88.71
2019-04-10T13:08:51.449Z,88.64
2019-04-10T13:11:02.457Z,89.19
2019-04-10T13:13:28.728Z,89.36
2019-04-10T13:15:54.435Z,88.99
2019-04-10T13:18:20.507Z,89.65
2019-04-10T13:20:46.992Z,90.38
2019-04-10T13:23:14.881Z,90.17
2019-04-10T13:25:40.831Z,89.65
2019-04-10T13:28:08.268Z,89.65
2019-04-10T13:30:46.512Z,90.91
2019-04-10T13:33:02.572Z,90.45
2019-04-10T13:35:28.470Z,90.52
2019-04-10T13:37:54.841Z,91.01
2019-04-10T13:40:21.577Z,89.70
2019-04-10T13:42:47.707Z,90.04
2019-04-10T13:45:13.390Z,89.64
2019-04-10T13:47:39.103Z,90.18
2019-04-10T13:50:06.357Z,88.72
2019-04-10T13:52:32.355Z,88.63
2019-04-10T13:54:58.903Z,88.06
2019-04-10T13:57:24.776Z,88.34
2019-04-10T13:59:50.537Z,87.80
2019-04-10T14:02:18.353Z,87.86
2019-04-10T14:04:44.100Z,88.22
2019-04-10T14:07:11.497Z,88.23
2019-04-10T14:09:45.970Z,89.01
2019-04-10T14:12:05.977Z,88.29
2019-04-10T14:14:32.904Z,88.32
2019-04-10T14:16:59.333Z,89.06
2019-04-10T14:19:27.734Z,87.95
2019-04-10T14:21:53.664Z,88.34
2019-04-10T14:24:19.958Z,88.58
2019-04-10T14:26:50.406Z,89.21
2019-04-10T14:29:16.426Z,90.36
2019-04-10T14:31:44.729Z,90.54
2019-04-10T14:34:10.644Z,90.52
2019-04-10T14:36:36.736Z,90.76
2019-04-10T14:39:11.033Z,89.73
2019-04-10T14:41:33.683Z,91.01
2019-04-10T14:43:59.664Z,91.22
2019-04-10T14:46:26.294Z,91.49
2019-04-10T14:48:52.294Z,91.53
2019-04-10T14:51:18.127Z,91.94
2019-04-10T14:53:44.217Z,91.80
2019-04-10T14:56:10.551Z,90.81
2019-04-10T14:58:37.018Z,90.96
2019-04-10T15:01:06.804Z,91.51
2019-04-10T15:03:30.787Z,91.92
2019-04-10T15:05:58.280Z,92.34
2019-04-10T15:08:24.563Z,92.81
2019-04-10T15:10:50.597Z,92.59
2019-04-10T15:13:20.994Z,91.97
2019-04-10T15:15:44.899Z,92.71
2019-04-10T15:18:11.220Z,92.83
2019-04-10T15:20:37.583Z,93.47
2019-04-10T15:23:03.452Z,93.55
2019-04-10T15:25:29.498Z,92.86
2019-04-10T15:27:55.274Z,92.04
2019-04-10T15:30:22.223Z,92.87
2019-04-10T15:32:48.129Z,92.84
2019-04-10T15:35:13.903Z,93.01
2019-04-10T15:37:39.667Z,93.29
2019-04-10T15:40:17.707Z,93.57
2019-04-10T15:42:34.307Z,93.06
2019-04-10T15:45:00.779Z,93.01
2019-04-10T15:47:27.001Z,93.11
2019-04-10T15:49:53.548Z,93.02
2019-04-10T15:52:19.943Z,93.18
2019-04-10T15:54:46.088Z,93.13
2019-04-10T15:57:12.214Z,92.82
2019-04-10T15:59:38.569Z,94.14
2019-04-10T16:02:05.613Z,93.87
2019-04-10T16:04:31.718Z,93.92
2019-04-10T16:06:57.866Z,93.84
2019-04-10T16:09:25.300Z,94.01
2019-04-10T16:12:02.704Z,94.11
2019-04-10T16:14:30.267Z,94.46
2019-04-10T16:17:07.397Z,94.23
2019-04-10T16:19:38.810Z,94.34
2019-04-10T16:22:06.831Z,94.83
2019-04-10T16:24:33.109Z,94.50
2019-04-10T16:26:59.726Z,94.41
2019-04-10T16:29:26.736Z,94.64
2019-04-10T16:31:53.227Z,94.95
2019-04-10T16:34:19.829Z,95.00
2019-04-10T16:36:45.871Z,94.80
2019-04-10T16:39:17.577Z,94.93
2019-04-10T16:41:44.012Z,95.07
2019-04-10T16:44:10.977Z,94.77
2019-04-10T16:46:36.859Z,95.16
2019-04-10T16:49:02.653Z,96.10
2019-04-10T16:51:28.631Z,95.70
2019-04-10T16:53:54.409Z,95.42
2019-04-10T16:56:21.208Z,95.36
2019-04-10T16:58:47.945Z,95.69
2019-04-10T17:01:14.665Z,95.84
2019-04-10T17:03:40.847Z,96.05
2019-04-10T17:06:08.138Z,95.67
2019-04-10T17:08:34.361Z,95.68
2019-04-10T17:11:00.838Z,95.76
2019-04-10T17:13:26.720Z,95.64
2019-04-10T17:15:53.530Z,95.63
2019-04-10T17:18:19.380Z,95.78
2019-04-10T17:20:45.178Z,95.77
2019-04-10T17:23:12.155Z,95.84
2019-04-10T17:25:38.255Z,96.02
2019-04-10T17:28:04.379Z,95.95
2019-04-10T17:30:30.485Z,95.57
2019-04-10T17:32:56.450Z,95.75
2019-04-10T17:35:23.316Z,95.67
2019-04-10T17:37:49.911Z,95.60
2019-04-10T17:40:28.487Z,95.98
2019-04-10T17:42:44.327Z,95.58
2019-04-10T17:45:10.244Z,95.84
2019-04-10T17:47:36.748Z,95.91
2019-04-10T17:50:05.690Z,95.93
2019-04-10T17:52:34.670Z,95.98
2019-04-10T17:55:00.888Z,95.84
2019-04-10T17:57:36.491Z,95.83
2019-04-10T17:59:54.551Z,96.08
2019-04-10T18:02:21.206Z,96.26
2019-04-10T18:04:46.980Z,96.07
2019-04-10T18:07:12.761Z,95.54
2019-04-10T18:09:38.831Z,95.65
2019-04-10T18:12:06.071Z,95.91
2019-04-10T18:14:35.123Z,96.01
2019-04-10T18:17:00.426Z,95.53
2019-04-10T18:19:27.406Z,95.56
2019-04-10T18:21:54.201Z,95.64
2019-04-10T18:24:20.124Z,95.55
2019-04-10T18:26:46.262Z,95.92
2019-04-10T18:29:11.951Z,96.08
2019-04-10T18:31:37.839Z,95.72
2019-04-10T18:34:07.049Z,95.54
2019-04-10T18:36:31.941Z,95.81
2019-04-10T18:38:58.014Z,95.98
2019-04-10T18:41:24.220Z,95.66
2019-04-10T18:43:50.855Z,95.89
2019-04-10T18:46:19.424Z,95.88
2019-04-10T18:48:46.678Z,95.98
2019-04-10T18:51:12.584Z,96.08
2019-04-10T18:53:45.808Z,96.04
2019-04-10T18:56:13.218Z,96.27
2019-04-10T18:58:41.363Z,96.32
2019-04-10T19:01:18.919Z,95.85
2019-04-10T19:03:52.618Z,95.43
2019-04-10T19:06:16.373Z,95.44
2019-04-10T19:08:42.243Z,95.33
2019-04-10T19:11:20.028Z,95.22
2019-04-10T19:13:36.124Z,95.36
2019-04-10T19:16:02.016Z,95.36
2019-04-10T19:18:28.120Z,95.50
2019-04-10T19:20:56.570Z,95.69
2019-04-10T19:23:22.746Z,95.83
2019-04-10T19:25:49.852Z,95.80
2019-04-10T19:28:27.664Z,95.75
2019-04-10T19:30:45.776Z,95.79
2019-04-10T19:33:12.128Z,95.75
2019-04-10T19:35:39.199Z,95.55
2019-04-10T19:38:07.301Z,95.53
2019-04-10T19:40:33.977Z,95.71
2019-04-10T19:43:00.107Z,95.83
2019-04-10T19:45:27.860Z,95.95
2019-04-10T19:47:54.718Z,95.99
2019-04-10T19:50:21.389Z,96.04
2019-04-10T19:52:47.288Z,95.98
2019-04-10T19:55:13.592Z,95.92
2019-04-10T19:57:39.620Z,95.93
2019-04-10T20:00:08.259Z,96.02
2019-04-10T20:02:35.174Z,95.92
2019-04-10T20:05:01.302Z,95.85
2019-04-10T20:07:27.421Z,95.83
2019-04-10T20:09:53.219Z,95.91
2019-04-10T20:12:18.938Z,95.86
2019-04-10T20:14:44.979Z,95.87
2019-04-10T20:17:11.564Z,95.96
2019-04-10T20:19:38.362Z,95.55
2019-04-10T20:22:04.540Z,95.28
2019-04-10T20:24:30.243Z,95.40
2019-04-10T20:26:55.984Z,95.59
2019-04-10T20:29:23.207Z,95.55
2019-04-10T20:31:50.514Z,95.44
2019-04-10T20:34:16.282Z,95.61
2019-04-10T20:36:42.062Z,95.63
2019-04-10T20:39:09.339Z,95.62
2019-04-10T20:41:47.807Z,95.64
2019-04-10T20:44:03.720Z,95.73
2019-04-10T20:46:30.511Z,95.88
2019-04-10T20:48:57.145Z,95.85
2019-04-10T20:51:23.063Z,95.68
2019-04-10T20:53:50.783Z,95.84
2019-04-10T20:56:18.289Z,95.99
2019-04-10T20:58:44.848Z,95.54
